createdAt,value
2019-03-17T00:01:25.336Z,64.60
2019-03-17T00:03:55.694Z,60.47
2019-03-17T00:06:26.095Z,55.93
2019-03-17T00:08:56.268Z,52.70
2019-03-17T00:11:26.793Z,48.73
2019-03-17T00:13:57.929Z,37.50
2019-03-17T00:16:27.528Z,47.13
2019-03-17T00:18:57.155Z,36.47
2019-03-17T00:21:30.386Z,29.00
2019-03-17T00:24:00.630Z,28.00
2019-03-17T00:26:31.296Z,27.33
2019-03-17T00:29:01.061Z,22.27
2019-03-17T00:31:31.076Z,28.50
2019-03-17T00:34:01.078Z,29.63
2019-03-17T00:36:31.263Z,22.13
2019-03-17T00:39:02.213Z,24.83
2019-03-17T00:41:32.659Z,22.80
2019-03-17T00:44:03.553Z,30.77
2019-03-17T00:46:36.239Z,31.23
2019-03-17T00:49:07.214Z,44.60
2019-03-17T00:51:37.331Z,30.03
2019-03-17T00:54:07.382Z,25.67
2019-03-17T00:56:37.781Z,25.00
2019-03-17T00:59:08.724Z,25.30
2019-03-17T01:01:38.783Z,26.70
2019-03-17T01:04:09.538Z,22.43
2019-03-17T01:06:40.064Z,25.60
2019-03-17T01:09:10.469Z,30.70
2019-03-17T01:11:40.304Z,29.07
2019-03-17T01:14:10.435Z,32.20
2019-03-17T01:16:42.525Z,27.83
2019-03-17T01:19:12.590Z,33.27
2019-03-17T01:21:42.927Z,29.57
2019-03-17T01:24:13.558Z,26.37
2019-03-17T01:26:44.263Z,23.33
2019-03-17T01:29:14.915Z,23.47
2019-03-17T01:31:44.705Z,23.97
2019-03-17T01:34:14.614Z,23.70
2019-03-17T01:36:44.266Z,27.97
2019-03-17T01:39:14.542Z,31.67
2019-03-17T01:41:44.552Z,32.10
2019-03-17T01:44:16.180Z,24.73
2019-03-17T01:46:46.879Z,19.33
2019-03-17T01:49:17.298Z,21.07
2019-03-17T01:51:47.288Z,14.97
2019-03-17T01:54:16.923Z,17.70
2019-03-17T01:56:47.260Z,21.30
2019-03-17T01:59:18.321Z,22.83
2019-03-17T02:01:48.970Z,22.60
2019-03-17T02:04:19.601Z,20.37
2019-03-17T02:06:50.264Z,17.27
2019-03-17T02:09:20.071Z,17.60
2019-03-17T02:11:50.376Z,15.87
2019-03-17T02:14:21.131Z,17.57
2019-03-17T02:16:51.931Z,15.73
2019-03-17T02:19:21.995Z,11.83
2019-03-17T02:21:52.534Z,22.60
2019-03-17T02:24:22.572Z,17.83
2019-03-17T02:26:52.449Z,13.40
2019-03-17T02:29:22.147Z,18.30
2019-03-17T02:31:52.961Z,18.40
2019-03-17T02:34:24.143Z,15.80
2019-03-17T02:36:55.852Z,16.57
2019-03-17T02:39:26.411Z,13.03
2019-03-17T02:41:56.979Z,16.90
2019-03-17T02:44:26.863Z,13.37
2019-03-17T02:46:58.430Z,10.13
2019-03-17T02:49:29.716Z,10.27
2019-03-17T02:51:59.756Z,21.37
2019-03-17T02:54:30.403Z,20.83
2019-03-17T02:57:01.303Z,25.63
2019-03-17T02:59:31.188Z,22.47
2019-03-17T03:02:01.695Z,18.47
2019-03-17T03:04:32.920Z,19.67
2019-03-17T03:07:03.184Z,18.57
2019-03-17T03:09:33.507Z,24.73
2019-03-17T03:12:03.447Z,20.20
2019-03-17T03:14:33.303Z,14.33
2019-03-17T03:17:03.277Z,17.27
2019-03-17T03:19:34.281Z,20.10
2019-03-17T03:22:04.381Z,14.97
2019-03-17T03:24:34.812Z,16.63
2019-03-17T03:27:04.874Z,16.17
2019-03-17T03:29:35.225Z,12.73
2019-03-17T03:32:05.403Z,11.57
2019-03-17T03:34:36.003Z,14.63
2019-03-17T03:37:06.457Z,13.53
2019-03-17T03:39:36.277Z,17.13
2019-03-17T03:42:06.136Z,16.90
2019-03-17T03:44:36.075Z,11.07
2019-03-17T03:47:06.673Z,11.73
2019-03-17T03:49:36.568Z,11.97
2019-03-17T03:52:06.729Z,13.33
2019-03-17T03:54:39.396Z,9.73
2019-03-17T03:57:10.575Z,8.70
2019-03-17T03:59:41.233Z,9.00
2019-03-17T04:02:11.353Z,13.40
2019-03-17T04:04:41.812Z,12.40
2019-03-17T04:07:13.435Z,10.93
2019-03-17T04:09:44.116Z,12.37
2019-03-17T04:12:14.255Z,14.03
2019-03-17T04:14:45.073Z,9.50
2019-03-17T04:17:14.970Z,8.23
2019-03-17T04:19:44.615Z,8.87
2019-03-17T04:22:14.994Z,6.83
2019-03-17T04:24:44.593Z,8.20
2019-03-17T04:27:15.703Z,9.27
2019-03-17T04:29:45.778Z,10.37
2019-03-17T04:32:16.042Z,11.03
2019-03-17T04:34:46.323Z,10.53
2019-03-17T04:37:16.646Z,10.00
2019-03-17T04:39:46.830Z,5.93
2019-03-17T04:42:17.330Z,10.53
2019-03-17T04:44:48.919Z,12.17
2019-03-17T04:47:18.601Z,8.80
2019-03-17T04:49:48.966Z,9.50
2019-03-17T04:52:19.292Z,27.00
2019-03-17T04:54:49.652Z,17.37
2019-03-17T04:57:20.070Z,15.23
2019-03-17T04:59:50.095Z,20.23
2019-03-17T05:02:20.096Z,23.50
2019-03-17T05:04:50.734Z,21.67
2019-03-17T05:07:20.489Z,16.70
2019-03-17T05:09:51.382Z,12.07
2019-03-17T05:12:23.391Z,13.33
2019-03-17T05:14:54.267Z,12.90
2019-03-17T05:17:24.777Z,10.43
2019-03-17T05:19:54.729Z,8.77
2019-03-17T05:22:25.123Z,15.37
2019-03-17T05:24:55.705Z,14.60
2019-03-17T05:27:27.013Z,15.53
2019-03-17T05:29:57.401Z,11.07
2019-03-17T05:32:27.469Z,20.23
2019-03-17T05:34:57.786Z,9.80
2019-03-17T05:37:28.146Z,12.10
2019-03-17T05:39:58.654Z,14.40
2019-03-17T05:42:29.491Z,14.63
2019-03-17T05:44:59.158Z,23.23
2019-03-17T05:47:29.588Z,19.63
2019-03-17T05:49:59.277Z,16.00
2019-03-17T05:52:28.973Z,25.00
2019-03-17T05:54:59.316Z,25.63
2019-03-17T05:57:30.099Z,23.43
2019-03-17T06:00:00.551Z,21.70
2019-03-17T06:02:31.033Z,15.13
2019-03-17T06:05:01.642Z,13.57
2019-03-17T06:07:31.812Z,20.17
2019-03-17T06:10:02.803Z,13.97
2019-03-17T06:12:34.491Z,18.37
2019-03-17T06:15:04.602Z,16.10
2019-03-17T06:17:34.550Z,14.17
2019-03-17T06:20:06.037Z,14.40
2019-03-17T06:22:35.633Z,15.27
2019-03-17T06:25:06.927Z,12.37
2019-03-17T06:27:36.518Z,14.67
2019-03-17T06:30:07.086Z,24.10
2019-03-17T06:32:36.777Z,16.23
2019-03-17T06:35:08.366Z,11.53
2019-03-17T06:37:38.076Z,11.50
2019-03-17T06:40:08.229Z,16.67
2019-03-17T06:42:38.007Z,22.83
2019-03-17T06:45:08.805Z,18.67
2019-03-17T06:47:39.574Z,26.30
2019-03-17T06:50:10.270Z,24.17
2019-03-17T06:52:41.148Z,30.53
2019-03-17T06:55:13.278Z,23.37
2019-03-17T06:57:43.328Z,16.20
2019-03-17T07:00:13.313Z,16.43
2019-03-17T07:02:42.988Z,14.83
2019-03-17T07:05:12.967Z,17.27
2019-03-17T07:07:44.166Z,20.57
2019-03-17T07:10:14.313Z,21.00
2019-03-17T07:12:44.046Z,20.07
2019-03-17T07:15:14.075Z,16.13
2019-03-17T07:17:43.648Z,12.33
2019-03-17T07:20:13.543Z,17.47
2019-03-17T07:22:43.218Z,15.40
2019-03-17T07:25:13.100Z,10.57
2019-03-17T07:27:42.837Z,18.00
2019-03-17T07:30:13.284Z,10.33
2019-03-17T07:32:42.863Z,8.57
2019-03-17T07:35:12.799Z,6.73
2019-03-17T07:37:42.540Z,7.73
2019-03-17T07:40:12.510Z,11.43
2019-03-17T07:42:42.442Z,10.53
2019-03-17T07:45:12.440Z,6.60
2019-03-17T07:47:42.263Z,6.87
2019-03-17T07:50:12.261Z,7.00
2019-03-17T07:52:41.874Z,9.97
2019-03-17T07:55:11.509Z,9.83
2019-03-17T07:57:41.146Z,9.43
2019-03-17T08:00:10.850Z,10.37
2019-03-17T08:02:40.691Z,8.73
2019-03-17T08:05:10.598Z,11.43
2019-03-17T08:07:40.289Z,11.27
2019-03-17T08:10:10.938Z,10.53
2019-03-17T08:12:40.743Z,15.90
2019-03-17T08:15:11.003Z,8.93
2019-03-17T08:17:40.671Z,9.80
2019-03-17T08:20:10.830Z,11.93
2019-03-17T08:22:40.294Z,9.77
2019-03-17T08:25:10.110Z,12.77
2019-03-17T08:27:39.544Z,12.60
2019-03-17T08:30:10.179Z,12.73
2019-03-17T08:32:41.291Z,14.73
2019-03-17T08:35:11.235Z,13.00
2019-03-17T08:37:40.944Z,11.97
2019-03-17T08:40:12.161Z,15.13
2019-03-17T08:42:41.668Z,9.27
2019-03-17T08:45:11.973Z,11.37
2019-03-17T08:47:41.730Z,9.87
2019-03-17T08:50:11.675Z,14.47
2019-03-17T08:52:41.560Z,14.17
2019-03-17T08:55:11.353Z,10.83
2019-03-17T08:57:41.011Z,16.23
2019-03-17T09:00:11.777Z,11.47
2019-03-17T09:02:41.332Z,8.07
2019-03-17T09:05:11.220Z,9.33
2019-03-17T09:07:40.797Z,10.50
2019-03-17T09:10:11.044Z,9.63
2019-03-17T09:12:40.796Z,13.17
2019-03-17T09:15:10.740Z,10.37
2019-03-17T09:17:40.468Z,15.47
2019-03-17T09:20:10.511Z,14.50
2019-03-17T09:22:40.339Z,10.50
2019-03-17T09:25:10.740Z,11.07
2019-03-17T09:27:40.481Z,12.27
2019-03-17T09:30:11.831Z,13.27
2019-03-17T09:32:41.865Z,10.53
2019-03-17T09:35:11.827Z,14.07
2019-03-17T09:37:41.568Z,13.07
2019-03-17T09:40:12.078Z,9.57
2019-03-17T09:42:41.604Z,12.63
2019-03-17T09:45:11.865Z,14.90
2019-03-17T09:47:41.696Z,9.43
2019-03-17T09:50:11.633Z,8.57
2019-03-17T09:52:41.267Z,14.70
2019-03-17T09:55:10.961Z,8.30
2019-03-17T09:57:40.695Z,9.03
2019-03-17T10:00:11.820Z,6.67
2019-03-17T10:02:41.607Z,10.50
2019-03-17T10:05:11.626Z,8.17
2019-03-17T10:07:41.305Z,11.67
2019-03-17T10:10:12.175Z,11.13
2019-03-17T10:12:42.028Z,12.70
2019-03-17T10:15:12.829Z,9.97
2019-03-17T10:17:42.730Z,5.27
2019-03-17T10:20:14.468Z,9.20
2019-03-17T10:22:44.414Z,6.40
2019-03-17T10:25:14.326Z,7.73
2019-03-17T10:27:44.194Z,7.17
2019-03-17T10:30:14.242Z,10.23
2019-03-17T10:32:43.949Z,10.20
2019-03-17T10:35:13.866Z,11.27
2019-03-17T10:37:43.608Z,10.03
2019-03-17T10:40:14.438Z,7.90
2019-03-17T10:42:44.150Z,5.97
2019-03-17T10:45:14.213Z,6.80
2019-03-17T10:47:43.994Z,9.53
2019-03-17T10:50:14.459Z,12.90
2019-03-17T10:52:44.064Z,9.77
2019-03-17T10:55:13.601Z,10.90
2019-03-17T10:57:43.341Z,6.40
2019-03-17T11:00:14.707Z,9.70
2019-03-17T11:02:44.517Z,7.10
2019-03-17T11:05:14.394Z,2.87
2019-03-17T11:07:44.009Z,6.93
2019-03-17T11:10:14.028Z,6.07
2019-03-17T11:12:43.888Z,3.00
2019-03-17T11:15:14.297Z,4.20
2019-03-17T11:17:43.838Z,3.57
2019-03-17T11:20:13.661Z,3.43
2019-03-17T11:22:43.459Z,2.90
2019-03-17T11:25:13.161Z,4.13
2019-03-17T11:27:43.034Z,1.97
2019-03-17T11:30:13.858Z,4.53
2019-03-17T11:32:43.633Z,4.57
2019-03-17T11:35:14.514Z,4.27
2019-03-17T11:37:44.281Z,3.03
2019-03-17T11:40:14.349Z,6.13
2019-03-17T11:42:43.983Z,3.77
2019-03-17T11:45:14.481Z,4.73
2019-03-17T11:47:45.018Z,6.67
2019-03-17T11:50:15.021Z,2.93
2019-03-17T11:52:44.824Z,4.13
2019-03-17T11:55:14.881Z,6.77
2019-03-17T11:57:44.822Z,6.20
2019-03-17T12:00:15.104Z,3.80
2019-03-17T12:02:44.935Z,5.83
2019-03-17T12:05:14.795Z,4.23
2019-03-17T12:07:44.541Z,2.90
2019-03-17T12:10:14.923Z,6.40
2019-03-17T12:12:44.774Z,2.73
2019-03-17T12:15:15.489Z,4.67
2019-03-17T12:17:45.268Z,3.30
2019-03-17T12:20:15.163Z,5.97
2019-03-17T12:22:44.950Z,2.17
2019-03-17T12:25:15.925Z,4.93
2019-03-17T12:27:45.598Z,4.90
2019-03-17T12:30:21.480Z,3.77
2019-03-17T12:32:51.457Z,3.57
2019-03-17T12:35:21.591Z,6.23
2019-03-17T12:37:51.372Z,4.60
2019-03-17T12:40:21.103Z,4.87
2019-03-17T12:42:50.829Z,7.03
2019-03-17T12:45:20.640Z,2.47
2019-03-17T12:47:50.358Z,2.40
2019-03-17T12:50:20.018Z,4.77
2019-03-17T12:52:49.646Z,4.60
2019-03-17T12:55:19.219Z,2.80
2019-03-17T12:57:49.048Z,4.93
2019-03-17T13:00:18.632Z,4.87
2019-03-17T13:02:48.236Z,3.80
2019-03-17T13:05:17.837Z,3.67
2019-03-17T13:07:47.600Z,4.37
2019-03-17T13:10:17.448Z,3.33
2019-03-17T13:12:47.351Z,7.37
2019-03-17T13:15:17.162Z,4.67
2019-03-17T13:17:46.878Z,4.17
2019-03-17T13:20:16.798Z,2.03
2019-03-17T13:22:46.614Z,3.07
2019-03-17T13:25:16.295Z,7.17
2019-03-17T13:27:45.775Z,5.40
2019-03-17T13:30:15.926Z,3.67
2019-03-17T13:32:45.664Z,4.63
2019-03-17T13:35:15.524Z,10.10
2019-03-17T13:37:45.124Z,5.03
2019-03-17T13:40:27.658Z,2.30
2019-03-17T13:42:46.407Z,4.63
2019-03-17T13:45:16.275Z,3.97
2019-03-17T13:47:46.072Z,4.33
2019-03-17T13:50:15.807Z,4.33
2019-03-17T13:52:45.663Z,3.93
2019-03-17T13:55:15.270Z,4.17
2019-03-17T13:57:44.953Z,4.90
2019-03-17T14:00:15.601Z,3.53
2019-03-17T14:02:45.227Z,5.00
2019-03-17T14:05:15.285Z,4.10
2019-03-17T14:07:45.001Z,6.27
2019-03-17T14:10:16.960Z,4.10
2019-03-17T14:12:46.769Z,3.60
2019-03-17T14:15:16.592Z,4.67
2019-03-17T14:17:46.405Z,3.57
2019-03-17T14:20:20.397Z,5.10
2019-03-17T14:22:49.228Z,6.73
2019-03-17T14:25:24.073Z,6.83
2019-03-17T14:27:53.785Z,4.20
2019-03-17T14:30:23.818Z,4.03
2019-03-17T14:32:53.438Z,5.13
2019-03-17T14:35:23.189Z,3.17
2019-03-17T14:37:52.815Z,4.73
2019-03-17T14:40:22.535Z,2.10
2019-03-17T14:42:55.289Z,3.87
2019-03-17T14:45:23.867Z,6.87
2019-03-17T14:47:53.751Z,2.43
2019-03-17T14:50:23.438Z,3.80
2019-03-17T14:52:53.320Z,6.53
2019-03-17T14:55:23.308Z,3.30
2019-03-17T14:57:53.000Z,4.30
2019-03-17T15:00:22.856Z,4.73
2019-03-17T15:02:52.811Z,5.03
2019-03-17T15:05:25.202Z,3.80
2019-03-17T15:07:54.394Z,7.70
2019-03-17T15:10:24.389Z,10.87
2019-03-17T15:12:54.220Z,4.40
2019-03-17T15:15:24.176Z,7.87
2019-03-17T15:17:53.892Z,3.60
2019-03-17T15:20:23.814Z,6.73
2019-03-17T15:22:53.817Z,4.83
2019-03-17T15:25:23.684Z,8.57
2019-03-17T15:27:53.520Z,6.90
2019-03-17T15:30:24.350Z,4.13
2019-03-17T15:32:53.926Z,8.23
2019-03-17T15:35:23.768Z,6.73
2019-03-17T15:37:53.640Z,6.37
2019-03-17T15:40:23.455Z,7.67
2019-03-17T15:42:53.256Z,9.97
2019-03-17T15:45:23.168Z,4.37
2019-03-17T15:47:53.060Z,5.17
2019-03-17T15:50:22.700Z,12.80
2019-03-17T15:52:52.520Z,16.00
2019-03-17T15:55:22.302Z,14.30
2019-03-17T15:57:52.010Z,8.93
2019-03-17T16:00:26.726Z,13.80
2019-03-17T16:02:53.755Z,10.80
2019-03-17T16:05:23.924Z,10.77
2019-03-17T16:07:53.825Z,7.97
2019-03-17T16:10:23.744Z,7.97
2019-03-17T16:12:53.588Z,9.87
2019-03-17T16:15:23.441Z,8.23
2019-03-17T16:17:53.042Z,9.97
2019-03-17T16:20:22.894Z,17.70
2019-03-17T16:22:52.959Z,16.63
2019-03-17T16:25:22.642Z,21.57
2019-03-17T16:27:52.276Z,13.67
2019-03-17T16:30:23.283Z,9.27
2019-03-17T16:32:53.462Z,14.63
2019-03-17T16:35:23.763Z,22.30
2019-03-17T16:37:53.557Z,18.47
2019-03-17T16:40:23.652Z,23.27
2019-03-17T16:42:53.979Z,21.85
2019-03-17T16:45:24.151Z,20.83
2019-03-17T16:47:54.015Z,20.13
2019-03-17T16:50:23.928Z,27.60
2019-03-17T16:52:53.747Z,28.70
2019-03-17T16:55:23.779Z,26.47
2019-03-17T16:57:53.626Z,24.57
2019-03-17T17:00:23.707Z,40.30
2019-03-17T17:02:53.891Z,32.03
2019-03-17T17:05:23.790Z,32.33
2019-03-17T17:07:53.661Z,39.57
2019-03-17T17:10:23.733Z,36.30
2019-03-17T17:12:53.664Z,31.43
2019-03-17T17:15:24.574Z,24.60
2019-03-17T17:17:54.405Z,22.67
2019-03-17T17:20:25.860Z,28.03
2019-03-17T17:22:55.850Z,30.43
2019-03-17T17:25:25.935Z,33.30
2019-03-17T17:27:56.194Z,44.80
2019-03-17T17:30:26.904Z,41.83
2019-03-17T17:32:57.714Z,41.93
2019-03-17T17:35:27.795Z,34.83
2019-03-17T17:37:58.089Z,44.73
2019-03-17T17:40:28.980Z,38.87
2019-03-17T17:43:00.394Z,34.30
2019-03-17T17:45:31.333Z,34.00
2019-03-17T17:48:02.415Z,36.80
2019-03-17T17:50:33.585Z,37.03
2019-03-17T17:53:04.569Z,32.43
2019-03-17T17:55:35.843Z,35.27
2019-03-17T17:58:07.470Z,31.77
2019-03-17T18:00:40.554Z,29.93
2019-03-17T18:03:11.626Z,30.00
2019-03-17T18:05:41.976Z,27.93
2019-03-17T18:08:11.992Z,44.03
2019-03-17T18:10:42.389Z,37.47
2019-03-17T18:13:13.000Z,48.80
2019-03-17T18:15:44.045Z,44.17
2019-03-17T18:18:14.251Z,43.97
2019-03-17T18:20:45.146Z,50.27
2019-03-17T18:23:18.253Z,45.03
2019-03-17T18:25:46.389Z,44.50
2019-03-17T18:28:15.926Z,26.93
2019-03-17T18:30:45.666Z,28.73
2019-03-17T18:33:15.502Z,26.57
2019-03-17T18:35:45.309Z,26.60
2019-03-17T18:38:14.896Z,25.57
2019-03-17T18:40:44.509Z,30.63
2019-03-17T18:43:14.294Z,28.60
2019-03-17T18:45:44.131Z,33.67
2019-03-17T18:48:13.915Z,23.53
2019-03-17T18:50:43.645Z,20.13
2019-03-17T18:53:13.266Z,19.23
2019-03-17T18:55:43.000Z,20.47
2019-03-17T18:58:12.629Z,16.43
2019-03-17T19:00:42.447Z,16.83
2019-03-17T19:03:12.057Z,17.43
2019-03-17T19:05:41.706Z,22.67
2019-03-17T19:08:11.498Z,20.70
2019-03-17T19:10:41.171Z,16.77
2019-03-17T19:13:10.933Z,20.20
2019-03-17T19:15:40.810Z,21.60
2019-03-17T19:18:10.501Z,16.30
2019-03-17T19:20:40.138Z,22.07
2019-03-17T19:23:09.792Z,24.00
2019-03-17T19:25:39.326Z,19.40
2019-03-17T19:28:09.043Z,22.37
2019-03-17T19:30:38.680Z,19.00
2019-03-17T19:33:08.495Z,21.73
2019-03-17T19:35:38.237Z,21.27
2019-03-17T19:38:08.007Z,24.47
2019-03-17T19:40:37.688Z,16.40
2019-03-17T19:43:07.379Z,21.27
2019-03-17T19:45:36.926Z,23.07
2019-03-17T19:48:06.568Z,20.13
2019-03-17T19:50:36.268Z,14.27
2019-03-17T19:53:05.906Z,21.30
2019-03-17T19:55:36.976Z,19.70
2019-03-17T19:58:06.734Z,14.13
2019-03-17T20:00:36.484Z,24.87
2019-03-17T20:03:06.086Z,23.67
2019-03-17T20:05:35.873Z,19.13
2019-03-17T20:08:05.732Z,16.00
2019-03-17T20:10:35.435Z,17.40
2019-03-17T20:13:11.481Z,18.27
2019-03-17T20:15:36.461Z,18.43
2019-03-17T20:18:06.138Z,19.43
2019-03-17T20:20:35.663Z,20.57
2019-03-17T20:23:05.361Z,21.07
2019-03-17T20:25:35.130Z,16.73
2019-03-17T20:28:04.860Z,20.73
2019-03-17T20:30:34.370Z,16.10
2019-03-17T20:33:04.222Z,17.43
2019-03-17T20:35:33.966Z,22.50
2019-03-17T20:38:03.678Z,17.60
2019-03-17T20:40:33.230Z,16.17
2019-03-17T20:43:02.966Z,16.80
2019-03-17T20:45:32.597Z,25.33
2019-03-17T20:48:02.742Z,19.63
2019-03-17T20:50:32.569Z,19.50
2019-03-17T20:53:02.252Z,18.03
2019-03-17T20:55:31.974Z,20.17
2019-03-17T20:58:01.647Z,16.47
2019-03-17T21:00:31.262Z,16.17
2019-03-17T21:03:00.939Z,22.97
2019-03-17T21:05:30.725Z,15.60
2019-03-17T21:08:00.373Z,15.83
2019-03-17T21:10:30.113Z,15.97
2019-03-17T21:12:59.814Z,12.73
2019-03-17T21:15:29.568Z,11.77
2019-03-17T21:17:59.151Z,12.80
2019-03-17T21:20:28.913Z,14.47
2019-03-17T21:22:58.449Z,15.13
2019-03-17T21:25:28.075Z,15.40
2019-03-17T21:27:57.788Z,15.17
2019-03-17T21:30:27.557Z,27.27
2019-03-17T21:32:57.331Z,25.07
2019-03-17T21:35:27.057Z,19.57
2019-03-17T21:37:56.736Z,16.87
2019-03-17T21:40:26.467Z,17.40
2019-03-17T21:42:56.235Z,22.17
2019-03-17T21:45:27.540Z,21.00
2019-03-17T21:47:57.331Z,21.93
2019-03-17T21:50:27.126Z,17.80
2019-03-17T21:52:56.792Z,20.47
2019-03-17T21:55:26.357Z,31.87
2019-03-17T21:57:56.032Z,22.77
2019-03-17T22:00:25.762Z,24.20
2019-03-17T22:02:55.580Z,22.40
2019-03-17T22:05:25.330Z,22.20
2019-03-17T22:07:55.003Z,18.60
2019-03-17T22:10:24.839Z,18.63
2019-03-17T22:12:54.566Z,17.17
2019-03-17T22:15:24.137Z,20.70
2019-03-17T22:17:53.940Z,17.60
2019-03-17T22:20:23.583Z,28.23
2019-03-17T22:22:53.210Z,20.97
2019-03-17T22:25:22.686Z,17.00
2019-03-17T22:27:52.561Z,12.47
2019-03-17T22:30:22.356Z,12.80
2019-03-17T22:32:52.074Z,14.40
2019-03-17T22:35:21.644Z,13.37
2019-03-17T22:37:51.277Z,13.47
2019-03-17T22:40:21.110Z,14.70
2019-03-17T22:42:50.679Z,12.90
2019-03-17T22:45:20.356Z,15.33
2019-03-17T22:47:50.051Z,18.53
2019-03-17T22:50:20.010Z,18.57
2019-03-17T22:52:49.689Z,19.67
2019-03-17T22:55:19.247Z,20.13
2019-03-17T22:57:48.889Z,23.13
2019-03-17T23:00:21.977Z,19.83
2019-03-17T23:02:51.653Z,15.93
2019-03-17T23:05:21.366Z,20.20
2019-03-17T23:07:51.157Z,19.93
2019-03-17T23:10:20.823Z,26.63
2019-03-17T23:12:50.823Z,23.80
2019-03-17T23:15:20.299Z,16.47
2019-03-17T23:17:49.851Z,16.03
2019-03-17T23:20:19.629Z,16.17
2019-03-17T23:22:49.098Z,18.30
2019-03-17T23:25:18.783Z,19.83
2019-03-17T23:27:48.419Z,19.47
2019-03-17T23:30:18.084Z,20.13
2019-03-17T23:32:49.145Z,20.10
2019-03-17T23:35:19.177Z,17.87
2019-03-17T23:37:49.048Z,15.83
2019-03-17T23:40:19.129Z,15.57
2019-03-17T23:42:48.987Z,14.73
2019-03-17T23:45:18.597Z,15.23
2019-03-17T23:47:48.018Z,18.83
2019-03-17T23:50:17.901Z,15.57
2019-03-17T23:52:47.459Z,14.40
2019-03-17T23:55:17.144Z,11.50
2019-03-17T23:57:46.853Z,14.13
